METAR AND TAF INFORMATION
METAR FOR CYNM
ADDS - METARS form results

(1700 UTC 14 December 2017)
Data provider http://aviationweather.gov/adds/metars/
 
METAR text: CYNM 141650Z AUTO 29019G25KT 2 1/4SM BR OVC019 M20/M22 A2959 RMK VIS VRB 1 1/2-3 ICG SLP051
Conditions at: CYNM (MATAGAMI AIRPORT, QC, CA) observed 1650 UTC 14 December 2017
Temperature: -20.0°C (-4°F)
Dewpoint: -22.0°C (-8°F) [RH = 84%]
Pressure (altimeter): 29.59 inches Hg (1002.1 mb)
[Sea-level pressure: 1005.1 mb]
Winds: from the WNW (290 degrees) at 22 MPH (19 knots; 9.9 m/s)
gusting to 29 MPH (25 knots; 13.0 m/s)
Visibility: 2.25 miles (3.62 km)
Ceiling: 1900 feet AGL
Clouds: overcast cloud deck at 1900 feet AGL
Weather: BR  (mist)

METAR text: CYNM 141646Z AUTO 29016G25KT 3SM HZ OVC019 M19/M22 A2959 RMK ICG SLP051
Conditions at: CYNM (MATAGAMI AIRPORT, QC, CA) observed 1646 UTC 14 December 2017
Temperature: -19.0°C (-2°F)
Dewpoint: -22.0°C (-8°F) [RH = 77%]
Pressure (altimeter): 29.59 inches Hg (1002.1 mb)
[Sea-level pressure: 1005.1 mb]
Winds: from the WNW (290 degrees) at 18 MPH (16 knots; 8.3 m/s)
gusting to 29 MPH (25 knots; 13.0 m/s)
Visibility: 3 miles (5 km)
Ceiling: 1900 feet AGL
Clouds: overcast cloud deck at 1900 feet AGL
Weather: HZ  (haze)

METAR text: CYNM 141640Z AUTO 29016G24KT 3SM -SN OVC019 M20/M22 A2959 RMK ICG SLP051
Conditions at: CYNM (MATAGAMI AIRPORT, QC, CA) observed 1640 UTC 14 December 2017
Temperature: -20.0°C (-4°F)
Dewpoint: -22.0°C (-8°F) [RH = 84%]
Pressure (altimeter): 29.59 inches Hg (1002.1 mb)
[Sea-level pressure: 1005.1 mb]
Winds: from the WNW (290 degrees) at 18 MPH (16 knots; 8.3 m/s)
gusting to 28 MPH (24 knots; 12.5 m/s)
Visibility: 3 miles (5 km)
Ceiling: 1900 feet AGL
Clouds: overcast cloud deck at 1900 feet AGL
Weather: -SN  (light snow)

METAR text: CYNM 141602Z AUTO 29016G23KT 1 3/4SM -SN OVC018 M20/M22 A2958 RMK VIS VRB 1-3 ICG SLP049
Conditions at: CYNM (MATAGAMI AIRPORT, QC, CA) observed 1602 UTC 14 December 2017
Temperature: -20.0°C (-4°F)
Dewpoint: -22.0°C (-8°F) [RH = 84%]
Pressure (altimeter): 29.58 inches Hg (1001.8 mb)
[Sea-level pressure: 1004.9 mb]
Winds: from the WNW (290 degrees) at 18 MPH (16 knots; 8.3 m/s)
gusting to 26 MPH (23 knots; 12.0 m/s)
Visibility: 1.75 miles (2.82 km)
Ceiling: 1800 feet AGL
Clouds: overcast cloud deck at 1800 feet AGL
Weather: -SN  (light snow)

 AIRPORT MAP

 RUNWAY INFORMATION
Runway 15 Runway length 5000 ft Runway width 100 ft
Runway elevation 908 ft Runway displaced threshold 0 ft Runway heading 134
Runway 33 Runway length 5000 ft Runway width 100 ft
Runway elevation 918 ft Runway displaced threshold 0 ft Runway heading 314

 AIRPORT FREQUENCIES
Type AWOS Name AWOS Frequency 127.45 MHZ
Type RCO Name QUEBEC RDO Frequency 123.55 MHZ
Type UNIC Name ATF/UNICOM Frequency 122.8 MHZ

 AIRPORT NEAR NAVIGATION AIDS
Type NDB Name Matagami Frequency 278 KHZ



Powered by Virtual Airlines Manager [v2.6.2]

SI TIENES ALGUNA DUDA SOBRE LA WEB CONTACTA: webmaster@taca-virtual.org